Main page
METAR-TAF:

METAR-TAF

Airports :

Pamplona, Spain

Pamplona Airport

latitude: 42-46N, longitude: 001-38W, elevation: 459 m

Current weather observation

The report was made 43 minutes ago, at 06:30 UTC
Calm wind
Temperature 4°C
Humidity 81%
Pressure 1025 hPa
Visibility 10 km or more
Few clouds at a height of 2500 ft
Scattered clouds at a height of 4000 ft

METAR: LEPP 180630Z 00000KT 9999 FEW025 SCT040 04/01 Q1025

Time: 08:13 (07:13 UTC)

Forecast

The report was made 5 hours and 13 minutes ago, at 02:00 UTC
Forecast valid from 18 at 03 UTC to 19 at 03 UTC
Wind 9 kt from the North/Northwest
Visibility 10 km or more
Scattered clouds at a height of 2000 ft
Scattered clouds at a height of 3000 ft
Temporary
from 18 at 15 UTC to 19 at 03 UTC
Broken clouds at a height of 1200 ft
Scattered clouds at a height of 2000 ft, Towering cumulus.
rain showers, rain

TAF: LEPP 180200Z 1803/1903 33009KT 9999 SCT020 SCT030 TX10/1815Z TN03/1806Z TEMPO 1815/1903 SHRA RA BKN012 SCT020TCU

Weather observations and forecasts of more than 4000 airports (METAR and TAF reports).

The available stations are represented by yellow and red dots on the map.

Hover mouse over dot to see the name of the station.

Then click to see weather observations and forecasts.

To change the map : click on the green buttons with a black cross to zoom in, on the green button with a dash to zoom out, or on the green arrows for adjacent maps.


METAR-TAF: